Time;durP1;ratioP1;P1;durP2;ratioP2;P2;SDS_P1;SDS_P2;PMS_P1;PMS_P2;Temp;Humidity;BMP_temperature;BMP_pressure;BME280_temperature;BME280_humidity;BME280_pressure;Samples;Min_cycle;Max_cycle;Signal;HPM_P1;HPM_P2
2022/04/16 00:02:27;;;;;;;0.80;0.80;;;11.00;54.40;10.20;99263.00;;;;5115849;28;20250;-76
2022/04/16 00:04:53;;;;;;;0.70;0.70;;;11.00;54.30;10.20;99269.00;;;;5115785;28;20202;-76
2022/04/16 00:07:20;;;;;;;0.60;0.60;;;10.90;54.70;10.30;99269.00;;;;5097864;28;20225;-76
2022/04/16 00:09:49;;;;;;;0.63;0.63;;;10.90;54.80;10.20;99271.00;;;;5097745;28;20230;-75
2022/04/16 00:12:15;;;;;;;0.53;0.53;;;10.80;54.50;10.20;99261.00;;;;5115618;28;20222;-75
2022/04/16 00:14:43;;;;;;;0.50;0.50;;;10.90;54.70;10.30;99265.00;;;;5115636;28;20609;-76
2022/04/16 00:17:11;;;;;;;0.70;0.70;;;10.90;54.70;10.20;99260.00;;;;5115788;28;20248;-76
2022/04/16 00:19:38;;;;;;;0.87;0.87;;;10.90;54.50;10.10;99236.00;;;;5115537;28;20190;-75
2022/04/16 00:22:12;;;;;;;0.80;0.80;;;10.80;54.30;10.30;99251.00;;;;5115374;28;20249;-76
2022/04/16 00:24:39;;;;;;;0.80;0.80;;;10.80;54.50;10.30;99257.00;;;;5115693;28;20652;-76
2022/04/16 00:27:07;;;;;;;0.80;0.80;;;10.90;54.40;10.30;99265.00;;;;5115499;28;20218;-76
2022/04/16 00:29:34;;;;;;;0.70;0.70;;;10.90;54.20;10.00;99259.00;;;;5098638;28;20249;-76
2022/04/16 00:32:06;;;;;;;0.60;0.60;;;10.80;54.10;10.00;99254.00;;;;5116220;28;20239;-76
2022/04/16 00:34:33;;;;;;;0.50;0.50;;;10.70;54.80;10.10;99258.00;;;;5114274;28;20621;-76
2022/04/16 00:37:00;;;;;;;0.70;0.70;;;10.70;54.70;10.00;99254.00;;;;5097576;28;20567;-76
2022/04/16 00:39:29;;;;;;;0.50;0.50;;;10.60;54.50;10.00;99259.00;;;;5115222;28;20205;-75
2022/04/16 00:41:57;;;;;;;0.60;0.60;;;10.60;55.60;9.90;99252.00;;;;5115257;28;20269;-76
2022/04/16 00:44:25;;;;;;;0.50;0.50;;;10.50;55.70;9.90;99260.00;;;;5115203;28;20205;-76
2022/04/16 00:46:51;;;;;;;0.73;0.73;;;10.50;55.90;9.80;99254.00;;;;5114938;28;20309;-76
2022/04/16 00:49:19;;;;;;;0.73;0.73;;;10.40;56.20;9.80;99263.00;;;;5115184;28;20228;-76
2022/04/16 00:51:47;;;;;;;1.07;0.80;;;10.40;56.80;9.70;99256.00;;;;5114977;28;20293;-76
2022/04/16 00:54:16;;;;;;;0.73;0.73;;;10.40;56.90;9.80;99259.00;;;;5096901;28;20202;-76
2022/04/16 00:56:42;;;;;;;0.60;0.60;;;10.40;56.80;9.70;99262.00;;;;5114943;28;20206;-76
2022/04/16 00:59:09;;;;;;;0.57;0.57;;;10.30;57.40;9.70;99256.00;;;;5114862;28;20692;-75
2022/04/16 01:01:35;;;;;;;0.50;0.50;;;10.30;57.40;9.70;99259.00;;;;5114857;28;20204;-76
2022/04/16 01:04:02;;;;;;;0.60;0.60;;;10.30;57.60;9.50;99254.00;;;;5095802;28;20530;-75
2022/04/16 01:06:39;;;;;;;0.57;0.57;;;10.10;58.00;9.60;99252.00;;;;5114980;28;20276;-76
2022/04/16 01:09:08;;;;;;;0.80;0.80;;;10.20;58.10;9.50;99253.00;;;;5096874;28;20615;-76
2022/04/16 01:11:35;;;;;;;0.80;0.80;;;10.20;57.70;9.50;99250.00;;;;5114835;28;20209;-76
2022/04/16 01:14:02;;;;;;;0.70;0.70;;;10.10;57.60;9.50;99245.00;;;;5114767;28;20292;-76
2022/04/16 01:16:31;;;;;;;0.97;0.97;;;10.10;57.60;9.50;99243.00;;;;5114597;28;20190;-76
2022/04/16 01:18:57;;;;;;;0.90;0.90;;;10.00;58.10;9.30;99241.00;;;;5114644;28;20209;-76
2022/04/16 01:21:24;;;;;;;0.60;0.60;;;9.90;57.50;9.20;99245.00;;;;5096635;28;20217;-75
2022/04/16 01:23:52;;;;;;;0.60;0.60;;;9.80;57.20;9.00;99247.00;;;;5114533;28;20229;-74
2022/04/16 01:26:22;;;;;;;0.40;0.40;;;9.70;57.50;8.90;99242.00;;;;5114462;28;20237;-76
2022/04/16 01:28:49;;;;;;;0.60;0.60;;;9.60;57.90;8.80;99239.00;;;;5096545;28;20227;-76
2022/04/16 01:31:15;;;;;;;0.50;0.50;;;9.50;59.10;8.90;99241.00;;;;5096380;28;20237;-75
2022/04/16 01:33:44;;;;;;;0.70;0.70;;;9.50;59.50;8.90;99249.00;;;;5114598;28;20198;-75
2022/04/16 01:36:12;;;;;;;0.97;0.97;;;9.50;59.40;8.90;99254.00;;;;5114493;28;20238;-76
2022/04/16 01:38:38;;;;;;;0.60;0.60;;;9.50;60.20;8.90;99255.00;;;;5120102;28;20667;-76
2022/04/16 01:41:08;;;;;;;0.80;0.80;;;9.50;59.30;8.90;99255.00;;;;5119841;28;20860;-75
2022/04/16 01:43:34;;;;;;;0.70;0.70;;;9.50;59.80;8.90;99252.00;;;;5114600;28;20610;-75
2022/04/16 01:46:06;;;;;;;0.60;0.60;;;9.50;59.70;8.80;99256.00;;;;5114279;28;20705;-76
2022/04/16 01:48:32;;;;;;;0.80;0.80;;;9.50;59.70;8.90;99266.00;;;;5114301;28;20225;-76
2022/04/16 01:50:59;;;;;;;0.50;0.50;;;9.50;59.20;8.70;99262.00;;;;5114049;28;20213;-76
2022/04/16 01:53:25;;;;;;;0.57;0.57;;;9.40;58.90;8.60;99265.00;;;;5114150;28;20245;-76
2022/04/16 01:55:52;;;;;;;0.70;0.70;;;9.20;58.90;8.50;99268.00;;;;5096268;28;20597;-76
2022/04/16 01:58:20;;;;;;;0.70;0.70;;;9.20;58.90;8.50;99263.00;;;;5114145;28;20289;-75
2022/04/16 02:00:48;;;;;;;0.67;0.67;;;9.10;59.20;8.50;99264.00;;;;5114107;28;20247;-76
2022/04/16 02:03:15;;;;;;;0.73;0.73;;;9.10;59.70;8.40;99264.00;;;;5096059;28;20194;-76
2022/04/16 02:05:42;;;;;;;0.70;0.70;;;9.00;60.10;8.40;99258.00;;;;5113903;28;20229;-76
2022/04/16 02:08:08;;;;;;;0.83;0.83;;;9.00;61.00;8.30;99271.00;;;;5114064;28;20201;-76
2022/04/16 02:10:35;;;;;;;0.50;0.50;;;9.00;61.20;8.30;99271.00;;;;5113920;28;20257;-76
2022/04/16 02:13:01;;;;;;;1.57;1.47;;;8.90;61.50;8.10;99274.00;;;;5113989;28;20636;-77
2022/04/16 02:15:31;;;;;;;0.57;0.57;;;8.90;61.20;8.20;99260.00;;;;5115562;28;20664;-76
2022/04/16 02:18:00;;;;;;;0.70;0.70;;;8.90;61.70;8.20;99256.00;;;;5118511;28;20204;-76
2022/04/16 02:20:29;;;;;;;1.37;0.70;;;8.90;61.10;8.30;99252.00;;;;5099872;28;20660;-76
2022/04/16 02:22:55;;;;;;;1.90;1.03;;;8.90;61.80;8.20;99257.00;;;;5117889;28;20221;-77
2022/04/16 02:25:24;;;;;;;0.43;0.43;;;8.90;62.00;8.30;99260.00;;;;5117940;28;20285;-76
2022/04/16 02:27:50;;;;;;;0.60;0.60;;;8.80;61.70;8.30;99254.00;;;;5118017;28;20320;-76
2022/04/16 02:30:18;;;;;;;0.90;0.80;;;8.90;61.40;8.00;99248.00;;;;5117926;28;20214;-76
2022/04/16 02:32:48;;;;;;;0.97;0.97;;;8.80;60.80;8.00;99238.00;;;;5099727;28;20252;-78
2022/04/16 02:35:16;;;;;;;0.83;0.83;;;8.70;60.90;8.00;99254.00;;;;5117296;28;20218;-76
2022/04/16 02:37:44;;;;;;;0.67;0.67;;;8.70;61.50;8.00;99248.00;;;;5099526;28;20225;-75
2022/04/16 02:40:12;;;;;;;1.60;1.20;;;8.60;61.80;8.10;99244.00;;;;5099303;28;20524;-76
2022/04/16 02:42:41;;;;;;;0.60;0.60;;;8.60;62.00;8.10;99254.00;;;;5117207;28;20676;-76
2022/04/16 02:47:59;;;;;;;0.73;0.73;;;8.60;61.40;7.70;99265.00;;;;5117037;28;20537;-76
2022/04/16 02:50:28;;;;;;;0.90;0.90;;;8.40;61.90;7.60;99257.00;;;;5116823;28;20680;-76
2022/04/16 02:52:55;;;;;;;0.50;0.50;;;8.30;62.10;7.70;99262.00;;;;5098935;28;20547;-76
2022/04/16 02:55:22;;;;;;;0.73;0.73;;;8.30;62.60;7.80;99257.00;;;;5116848;28;20224;-76
2022/04/16 02:57:49;;;;;;;0.70;0.70;;;8.30;63.00;7.80;99257.00;;;;5116865;28;20186;-76
2022/04/16 03:00:16;;;;;;;0.83;0.83;;;8.40;63.30;7.80;99259.00;;;;5116790;28;20193;-76
2022/04/16 03:02:43;;;;;;;0.60;0.60;;;8.40;62.90;7.80;99253.00;;;;5116754;28;20724;-76
2022/04/16 03:05:11;;;;;;;0.60;0.60;;;8.40;63.00;7.70;99264.00;;;;5116831;28;20573;-76
2022/04/16 03:07:38;;;;;;;0.60;0.60;;;8.40;63.00;7.90;99261.00;;;;5116755;28;20204;-76
2022/04/16 03:10:08;;;;;;;0.70;0.70;;;8.40;63.10;7.80;99268.00;;;;5098892;28;20514;-77
2022/04/16 03:12:44;;;;;;;1.13;0.90;;;8.40;62.80;7.70;99237.00;;;;5116749;28;20229;-77
2022/04/16 03:17:57;;;;;;;0.57;0.57;;;8.30;63.40;7.60;99270.00;;;;5116460;28;20282;-76
2022/04/16 03:20:25;;;;;;;1.00;1.00;;;8.20;63.60;7.60;99276.00;;;;5116599;28;20186;-76
2022/04/16 03:22:52;;;;;;;0.63;0.63;;;8.20;64.10;7.60;99265.00;;;;5116552;28;20249;-76
2022/04/16 03:25:18;;;;;;;0.77;0.77;;;8.20;64.70;7.40;99266.00;;;;5116574;28;20288;-76
2022/04/16 03:27:45;;;;;;;0.80;0.80;;;8.10;64.90;7.50;99274.00;;;;5115512;28;20206;-75
2022/04/16 03:30:12;;;;;;;0.57;0.57;;;8.10;65.40;7.60;99266.00;;;;5116516;28;20214;-76
2022/04/16 03:32:39;;;;;;;0.60;0.60;;;8.20;65.90;7.70;99270.00;;;;5098447;28;20201;-76
2022/04/16 03:35:08;;;;;;;0.60;0.60;;;8.20;65.00;7.60;99254.00;;;;5116306;28;20261;-76
2022/04/16 03:37:38;;;;;;;0.60;0.60;;;8.20;64.90;7.70;99257.00;;;;5116393;28;20194;-76
2022/04/16 03:40:08;;;;;;;0.60;0.60;;;8.30;65.20;7.70;99255.00;;;;5116071;28;20282;-75
2022/04/16 03:42:35;;;;;;;0.70;0.70;;;8.30;65.10;7.80;99262.00;;;;5098142;28;20237;-75
2022/04/16 03:45:01;;;;;;;0.43;0.43;;;8.40;65.50;7.80;99258.00;;;;5116378;28;20241;-76
2022/04/16 03:47:30;;;;;;;0.60;0.60;;;8.40;66.10;8.00;99260.00;;;;5116409;28;20196;-76
2022/04/16 03:49:57;;;;;;;0.80;0.80;;;8.50;66.10;8.00;99252.00;;;;5098304;28;20226;-75
2022/04/16 03:52:23;;;;;;;0.70;0.70;;;8.60;65.60;7.90;99260.00;;;;5116169;28;20219;-76
2022/04/16 04:00:22;;;;;;;0.87;0.87;;;8.60;65.50;7.80;99266.00;;;;5115991;28;20202;-76
2022/04/16 04:02:48;;;;;;;0.80;0.80;;;8.50;66.10;7.80;99255.00;;;;5116192;28;20216;-75
2022/04/16 04:05:15;;;;;;;1.10;1.10;;;8.50;67.10;7.90;99275.00;;;;5115812;28;20201;-76
2022/04/16 04:07:41;;;;;;;0.50;0.50;;;8.50;66.50;7.90;99281.00;;;;5097884;28;20612;-76
2022/04/16 04:10:10;;;;;;;1.60;1.13;;;8.50;66.50;7.90;99275.00;;;;5116176;28;20255;-76
2022/04/16 04:12:39;;;;;;;0.80;0.80;;;8.50;66.30;7.90;99281.00;;;;5115749;28;20346;-76
2022/04/16 04:15:07;;;;;;;0.60;0.60;;;8.50;66.60;8.00;99278.00;;;;5115630;28;20281;-76
2022/04/16 04:17:37;;;;;;;0.60;0.60;;;8.50;66.60;8.00;99277.00;;;;5115765;28;20201;-76
2022/04/16 04:20:05;;;;;;;1.03;1.03;;;8.60;66.00;8.10;99288.00;;;;5115750;28;20225;-76
2022/04/16 04:22:31;;;;;;;1.10;1.10;;;8.60;66.30;8.00;99287.00;;;;5115623;28;20194;-75
2022/04/16 04:24:58;;;;;;;0.73;0.73;;;8.60;66.20;8.10;99294.00;;;;5115593;28;20218;-75
2022/04/16 04:27:27;;;;;;;0.60;0.60;;;8.70;66.30;8.10;99297.00;;;;5098179;28;20234;-76
2022/04/16 04:29:54;;;;;;;0.80;0.80;;;8.70;66.20;8.20;99296.00;;;;5115534;28;20632;-76
2022/04/16 04:32:20;;;;;;;0.70;0.70;;;8.70;65.80;8.20;99297.00;;;;5115769;28;20617;-75
2022/04/16 04:34:47;;;;;;;0.60;0.60;;;8.80;65.60;8.10;99294.00;;;;5115409;28;20198;-75
2022/04/16 04:37:14;;;;;;;0.70;0.70;;;8.70;65.30;7.90;99300.00;;;;5115215;28;20315;-76
2022/04/16 04:39:40;;;;;;;1.27;1.17;;;8.60;65.50;8.10;99295.00;;;;5115141;28;20194;-75
2022/04/16 04:42:07;;;;;;;0.93;0.93;;;8.70;66.10;8.00;99292.00;;;;5115279;28;20548;-76
2022/04/16 04:44:34;;;;;;;0.57;0.57;;;8.70;65.60;8.10;99290.00;;;;5115142;28;20723;-75
2022/04/16 04:47:04;;;;;;;0.80;0.80;;;8.60;65.40;8.00;99293.00;;;;5115193;28;20205;-76
2022/04/16 04:49:30;;;;;;;1.50;1.40;;;8.70;65.10;8.10;99291.00;;;;5115166;28;20308;-75
2022/04/16 04:51:57;;;;;;;0.73;0.73;;;8.70;65.00;8.30;99300.00;;;;5115150;28;20258;-75
2022/04/16 04:54:23;;;;;;;0.83;0.83;;;8.80;65.70;8.30;99285.00;;;;5114993;28;20205;-76
2022/04/16 04:56:49;;;;;;;0.57;0.57;;;8.90;65.50;8.20;99296.00;;;;5115062;28;20281;-76
2022/04/16 04:59:18;;;;;;;0.77;0.77;;;8.90;65.50;8.30;99296.00;;;;5114923;28;20309;-76
2022/04/16 05:01:48;;;;;;;0.60;0.60;;;8.80;65.40;8.20;99299.00;;;;5114835;28;20250;-76
2022/04/16 05:04:14;;;;;;;0.90;0.90;;;8.80;65.10;8.00;99309.00;;;;5097124;28;20273;-76
2022/04/16 05:06:41;;;;;;;0.77;0.77;;;8.70;65.00;8.00;99307.00;;;;5096970;28;20607;-76
2022/04/16 05:09:07;;;;;;;0.60;0.60;;;8.70;65.30;8.00;99308.00;;;;5114879;28;20272;-75
2022/04/16 05:11:34;;;;;;;0.73;0.73;;;8.70;65.90;8.00;99313.00;;;;5114735;28;20221;-76
2022/04/16 05:14:03;;;;;;;0.53;0.53;;;8.70;65.40;8.10;99314.00;;;;5114829;28;20588;-76
2022/04/16 05:16:29;;;;;;;0.70;0.70;;;8.70;65.50;8.20;99321.00;;;;5096756;28;20225;-76
2022/04/16 05:18:57;;;;;;;0.50;0.50;;;8.80;65.90;8.40;99324.00;;;;5114684;28;20707;-76
2022/04/16 05:21:23;;;;;;;0.63;0.63;;;8.90;66.80;8.40;99328.00;;;;5096559;28;20253;-76
2022/04/16 05:23:52;;;;;;;1.00;1.00;;;8.90;67.00;8.40;99319.00;;;;5114788;28;20668;-77
2022/04/16 05:26:19;;;;;;;1.87;1.77;;;9.00;66.40;8.40;99320.00;;;;5096612;28;20288;-75
2022/04/16 05:28:45;;;;;;;17.73;1.47;;;9.00;65.40;8.40;99311.00;;;;5096797;28;20214;-76
2022/04/16 05:31:12;;;;;;;0.90;0.90;;;8.90;64.70;8.40;99321.00;;;;5114454;28;20253;-76
2022/04/16 05:36:24;;;;;;;1.53;1.10;;;8.90;65.00;8.50;99324.00;;;;5114445;28;20202;-76
2022/04/16 05:38:51;;;;;;;1.00;1.00;;;9.00;65.60;8.50;99327.00;;;;5114341;28;20305;-76
2022/04/16 05:41:17;;;;;;;0.50;0.50;;;9.10;65.20;8.50;99319.00;;;;5114428;28;20232;-76
2022/04/16 05:43:44;;;;;;;0.60;0.60;;;9.10;64.00;8.70;99335.00;;;;5096386;28;20747;-76
2022/04/16 05:46:13;;;;;;;0.90;0.90;;;9.20;64.20;8.80;99333.00;;;;5096364;28;20222;-76
2022/04/16 05:48:41;;;;;;;0.83;0.83;;;9.30;63.80;8.70;99340.00;;;;5114427;28;20276;-76
2022/04/16 05:51:08;;;;;;;0.80;0.80;;;9.30;63.20;8.60;99331.00;;;;5095788;28;20308;-76
2022/04/16 05:53:35;;;;;;;0.90;0.90;;;9.20;63.60;8.60;99334.00;;;;5114546;28;20524;-77
2022/04/16 05:56:03;;;;;;;0.70;0.70;;;9.30;63.40;8.60;99335.00;;;;5114359;28;20286;-77
2022/04/16 05:58:30;;;;;;;0.70;0.70;;;9.30;63.50;8.70;99331.00;;;;5114275;28;20273;-77
2022/04/16 06:00:57;;;;;;;0.80;0.80;;;9.30;63.20;8.80;99332.00;;;;5114329;28;20229;-76
2022/04/16 06:03:24;;;;;;;0.80;0.80;;;9.40;62.80;8.80;99334.00;;;;5114048;28;20237;-76
2022/04/16 06:05:54;;;;;;;1.03;1.03;;;9.40;63.30;8.80;99340.00;;;;5113920;28;20645;-76
2022/04/16 06:08:21;;;;;;;0.77;0.77;;;9.50;63.10;8.80;99308.00;;;;5114235;28;20201;-76
2022/04/16 06:10:48;;;;;;;0.70;0.70;;;9.50;62.80;9.00;99347.00;;;;5096751;28;20605;-77
2022/04/16 06:13:15;;;;;;;1.00;1.00;;;9.60;62.50;9.00;99361.00;;;;5114008;28;20224;-76
2022/04/16 06:15:43;;;;;;;0.70;0.70;;;9.60;62.70;9.10;99356.00;;;;5113900;28;20225;-76
2022/04/16 06:18:12;;;;;;;0.87;0.87;;;9.60;63.20;8.90;99365.00;;;;5113835;28;20213;-76
2022/04/16 06:20:39;;;;;;;0.80;0.80;;;9.60;65.30;9.10;99368.00;;;;5114264;28;20250;-76
2022/04/16 06:23:07;;;;;;;0.80;0.80;;;9.80;64.10;9.30;99365.00;;;;5119280;28;20229;-76
2022/04/16 06:25:34;;;;;;;1.30;1.23;;;9.80;62.70;9.30;99360.00;;;;5115290;28;20203;-77
2022/04/16 06:28:01;;;;;;;1.57;0.70;;;9.90;64.30;9.40;99365.00;;;;5114982;28;20201;-78
2022/04/16 06:30:28;;;;;;;0.77;0.77;;;9.90;63.80;9.50;99366.00;;;;5115090;28;20305;-77
2022/04/16 06:32:55;;;;;;;0.70;0.70;;;10.00;63.80;9.50;99355.00;;;;5099267;28;20350;-77
2022/04/16 06:35:21;;;;;;;1.07;1.07;;;10.10;63.20;9.70;99361.00;;;;5115051;28;20194;-77
2022/04/16 06:37:48;;;;;;;0.73;0.73;;;10.20;62.50;9.80;99357.00;;;;5114559;28;20644;-77
2022/04/16 06:40:17;;;;;;;0.60;0.60;;;10.20;62.90;9.70;99358.00;;;;5096971;28;20309;-77
2022/04/16 06:42:46;;;;;;;0.73;0.73;;;10.30;63.00;9.70;99355.00;;;;5119317;28;20225;-76
2022/04/16 06:45:13;;;;;;;0.87;0.87;;;10.20;63.30;9.80;99363.00;;;;5118138;28;20222;-77
2022/04/16 06:47:43;;;;;;;0.70;0.70;;;10.30;63.00;9.90;99368.00;;;;5097341;28;20289;-76
2022/04/16 06:50:11;;;;;;;0.67;0.67;;;10.40;62.60;9.70;99369.00;;;;5113404;28;20221;-76
2022/04/16 06:52:37;;;;;;;0.73;0.73;;;10.30;62.00;9.90;99339.00;;;;5113494;28;20194;-76
2022/04/16 06:55:06;;;;;;;0.60;0.60;;;10.40;62.40;9.90;99369.00;;;;5113346;28;20234;-77
2022/04/16 06:57:33;;;;;;;0.57;0.57;;;10.40;62.50;10.10;99377.00;;;;5113396;28;20252;-76
2022/04/16 06:59:59;;;;;;;1.07;1.07;;;10.50;63.10;10.10;99376.00;;;;5113455;28;20288;-77
2022/04/16 07:02:29;;;;;;;0.60;0.60;;;10.60;62.30;10.20;99371.00;;;;5116172;28;20260;-77
2022/04/16 07:04:55;;;;;;;0.67;0.67;;;10.70;61.80;10.20;99373.00;;;;5116825;28;20522;-77
2022/04/16 07:07:22;;;;;;;0.77;0.77;;;10.70;62.00;10.20;99374.00;;;;5116688;28;20704;-76
2022/04/16 07:09:49;;;;;;;0.70;0.70;;;10.70;62.30;10.40;99379.00;;;;5116795;28;20293;-76
2022/04/16 07:12:15;;;;;;;1.03;1.03;;;10.90;62.30;10.50;99382.00;;;;5116712;28;20293;-77
2022/04/16 07:14:42;;;;;;;0.50;0.50;;;10.90;62.40;10.50;99383.00;;;;5116726;28;20238;-76
2022/04/16 07:17:09;;;;;;;0.70;0.70;;;11.00;61.60;10.60;99377.00;;;;5116724;28;20277;-77
2022/04/16 07:19:37;;;;;;;1.20;1.10;;;11.10;60.30;10.50;99382.00;;;;5116631;28;20247;-77
2022/04/16 07:22:06;;;;;;;0.90;0.90;;;11.00;60.80;10.50;99379.00;;;;5116617;28;20210;-77
2022/04/16 07:24:32;;;;;;;0.60;0.60;;;11.00;60.60;10.60;99382.00;;;;5116553;28;20232;-77
2022/04/16 07:26:59;;;;;;;0.60;0.60;;;11.10;60.90;10.80;99381.00;;;;5116748;28;20263;-76
2022/04/16 07:29:27;;;;;;;1.27;1.20;;;11.20;60.50;11.00;99391.00;;;;5116448;28;20197;-76
2022/04/16 07:31:53;;;;;;;0.53;0.53;;;11.40;60.00;11.10;99392.00;;;;5099030;28;20664;-77
2022/04/16 07:34:20;;;;;;;0.90;0.90;;;11.50;59.50;11.00;99384.00;;;;5116586;28;20190;-76
2022/04/16 07:36:49;;;;;;;0.90;0.90;;;11.50;59.30;11.00;99390.00;;;;5098729;28;20218;-76
2022/04/16 07:39:15;;;;;;;1.10;1.10;;;11.60;59.30;11.10;99396.00;;;;5098549;28;20502;-77
2022/04/16 07:41:42;;;;;;;0.90;0.90;;;11.60;59.30;11.30;99387.00;;;;5116281;28;20252;-77
2022/04/16 07:44:09;;;;;;;0.60;0.60;;;11.80;59.10;11.40;99395.00;;;;5116741;28;20233;-76
2022/04/16 07:46:36;;;;;;;0.90;0.90;;;11.80;58.50;11.60;99397.00;;;;5117003;28;20225;-76
2022/04/16 07:49:04;;;;;;;0.83;0.83;;;12.00;58.70;11.60;99395.00;;;;5119209;28;20666;-76
2022/04/16 07:51:31;;;;;;;1.00;0.97;;;12.10;58.20;11.80;99403.00;;;;5119015;28;20275;-76
2022/04/16 07:53:58;;;;;;;0.93;0.93;;;12.20;56.80;11.70;99399.00;;;;5122287;28;20193;-76
2022/04/16 07:56:25;;;;;;;1.00;1.00;;;12.20;57.20;11.80;99398.00;;;;5125273;28;20281;-76
2022/04/16 07:58:53;;;;;;;1.53;1.50;;;12.30;57.40;11.90;99403.00;;;;5118339;28;20282;-76
2022/04/16 08:01:22;;;;;;;0.60;0.60;;;12.30;57.50;12.00;99408.00;;;;5118853;28;20202;-76
2022/04/16 08:03:48;;;;;;;0.70;0.70;;;12.40;57.90;12.30;99403.00;;;;5118997;28;20676;-78
2022/04/16 08:06:15;;;;;;;0.83;0.83;;;12.60;57.70;12.30;99397.00;;;;5119897;28;20198;-77
2022/04/16 08:08:44;;;;;;;1.57;1.47;;;12.70;57.20;12.40;99400.00;;;;5119082;28;20742;-78
2022/04/16 08:11:13;;;;;;;1.10;1.00;;;12.80;55.90;12.60;99407.00;;;;5124906;28;20240;-76
2022/04/16 08:13:40;;;;;;;0.60;0.60;;;13.00;55.90;12.70;99408.00;;;;5132601;28;20210;-77
2022/04/16 08:16:09;;;;;;;0.70;0.70;;;13.10;55.70;12.80;99408.00;;;;5098996;28;20237;-76
2022/04/16 08:18:36;;;;;;;0.93;0.93;;;13.20;54.70;13.00;99415.00;;;;5116542;28;20724;-77
2022/04/16 08:21:03;;;;;;;0.97;0.97;;;13.30;54.40;12.90;99420.00;;;;5098257;28;20229;-77
2022/04/16 08:23:29;;;;;;;0.90;0.90;;;13.30;54.60;12.80;99414.00;;;;5116436;28;20565;-77
2022/04/16 08:25:56;;;;;;;0.77;0.77;;;13.30;53.90;13.00;99421.00;;;;5098300;28;20247;-76
2022/04/16 08:28:23;;;;;;;1.00;1.00;;;13.40;53.60;13.00;99423.00;;;;5116656;28;20198;-77
2022/04/16 08:30:51;;;;;;;0.90;0.90;;;13.40;53.00;12.80;99429.00;;;;5116124;28;20221;-77
2022/04/16 08:33:19;;;;;;;1.53;1.43;;;13.30;52.80;12.70;99422.00;;;;5114887;28;20598;-77
2022/04/16 08:35:46;;;;;;;1.20;1.10;;;13.20;53.50;12.60;99437.00;;;;5116000;28;20293;-77
2022/04/16 08:38:13;;;;;;;0.60;0.60;;;13.10;54.30;12.40;99421.00;;;;5116158;28;20310;-76
2022/04/16 08:40:41;;;;;;;1.10;1.10;;;13.00;54.50;12.30;99430.00;;;;5115945;28;20198;-77
2022/04/16 08:43:08;;;;;;;0.93;0.90;;;12.80;54.50;12.20;99427.00;;;;5115974;28;20304;-77
2022/04/16 08:45:38;;;;;;;1.50;1.40;;;12.80;56.40;12.20;99430.00;;;;5115420;28;20206;-77
2022/04/16 08:48:06;;;;;;;0.87;0.87;;;12.70;55.30;12.10;99422.00;;;;5115381;28;20197;-77
2022/04/16 08:50:34;;;;;;;1.00;1.00;;;12.70;55.90;12.10;99433.00;;;;5097131;28;20573;-77
2022/04/16 08:53:01;;;;;;;0.90;0.90;;;12.60;56.20;12.10;99429.00;;;;5115131;28;20202;-77
2022/04/16 08:55:29;;;;;;;2.87;1.73;;;12.60;56.30;12.40;99432.00;;;;5096927;28;20228;-77
2022/04/16 08:57:56;;;;;;;1.33;1.33;;;12.80;56.10;12.50;99433.00;;;;5115157;28;20190;-77
2022/04/16 09:00:23;;;;;;;0.90;0.90;;;13.00;56.80;12.70;99430.00;;;;5114789;28;20719;-75
2022/04/16 09:02:58;;;;;;;2.57;1.00;;;13.10;55.90;12.80;99437.00;;;;5115495;28;20217;-77
2022/04/16 09:05:26;;;;;;;0.67;0.67;;;13.30;54.90;13.00;99435.00;;;;5115783;28;20224;-77
2022/04/16 09:07:56;;;;;;;1.20;1.20;;;13.40;53.50;12.90;99427.00;;;;5114864;28;20271;-77
2022/04/16 09:10:28;;;;;;;1.43;1.40;;;13.40;52.90;12.60;99437.00;;;;5114878;28;20217;-77
2022/04/16 09:12:56;;;;;;;1.87;0.87;;;13.20;52.10;12.40;99446.00;;;;5115216;28;20232;-76
2022/04/16 09:15:27;;;;;;;1.07;1.07;;;13.10;52.30;12.50;99439.00;;;;5097202;28;20257;-77
2022/04/16 09:17:59;;;;;;;0.77;0.77;;;13.10;53.40;12.50;99441.00;;;;5114941;28;20312;-77
2022/04/16 09:20:35;;;;;;;1.17;1.07;;;13.00;52.80;12.30;99445.00;;;;5114681;28;20281;-77
2022/04/16 09:23:14;;;;;;;1.00;1.00;;;12.90;52.90;12.20;99450.00;;;;5114593;28;20304;-77
2022/04/16 09:25:43;;;;;;;0.60;0.60;;;12.90;52.30;12.20;99440.00;;;;5113657;28;20281;-76
2022/04/16 09:28:10;;;;;;;0.70;0.70;;;12.70;52.50;12.10;99434.00;;;;5114440;28;20221;-77
2022/04/16 09:30:47;;;;;;;0.70;0.70;;;12.70;53.50;12.30;99436.00;;;;5114534;28;20218;-77
2022/04/16 09:33:15;;;;;;;2.60;1.53;;;12.80;54.60;12.70;99438.00;;;;5114513;28;20201;-78
2022/04/16 09:35:41;;;;;;;3.80;2.00;;;13.10;54.00;13.10;99433.00;;;;5096501;28;20209;-77
2022/04/16 09:38:12;;;;;;;1.13;1.13;;;13.30;53.80;13.20;99437.00;;;;5114648;28;20237;-77
2022/04/16 09:40:45;;;;;;;1.10;1.10;;;13.50;51.80;13.30;99447.00;;;;5114391;28;20229;-78
2022/04/16 09:43:11;;;;;;;1.13;1.13;;;13.70;50.70;13.20;99444.00;;;;5114445;28;20201;-78
2022/04/16 09:45:40;;;;;;;0.90;0.90;;;13.70;50.30;13.50;99439.00;;;;5114227;28;20236;-78
2022/04/16 09:48:10;;;;;;;1.20;1.20;;;13.90;50.10;13.60;99414.00;;;;5114448;28;20223;-75
2022/04/16 09:50:42;;;;;;;1.00;1.00;;;14.00;48.20;13.50;99444.00;;;;5116599;28;20333;-75
2022/04/16 09:53:10;;;;;;;1.10;1.10;;;14.00;48.40;13.70;99441.00;;;;5118348;28;20194;-75
2022/04/16 09:55:41;;;;;;;0.90;0.90;;;14.10;47.90;13.60;99446.00;;;;5117617;28;20205;-78
2022/04/16 09:58:09;;;;;;;1.40;1.30;;;14.10;47.20;13.80;99453.00;;;;5114283;28;20197;-77
2022/04/16 10:00:38;;;;;;;0.70;0.70;;;14.20;47.80;14.10;99448.00;;;;5114011;28;20645;-78
2022/04/16 10:03:08;;;;;;;1.87;1.77;;;14.40;46.10;14.10;99426.00;;;;5113049;28;20222;-77
2022/04/16 10:05:35;;;;;;;1.03;1.03;;;14.60;43.30;14.30;99453.00;;;;5114027;28;20204;-76
2022/04/16 10:08:05;;;;;;;1.20;1.20;;;14.70;44.40;14.40;99456.00;;;;5114036;28;20277;-77
2022/04/16 10:10:41;;;;;;;1.60;1.50;;;14.80;43.80;14.30;99458.00;;;;5114073;28;20222;-77
2022/04/16 10:13:12;;;;;;;1.30;1.27;;;14.70;44.90;14.60;99455.00;;;;5114065;28;20617;-78
2022/04/16 10:16:02;;;;;;;1.03;1.03;;;14.90;44.10;14.70;99459.00;;;;5113940;28;20296;-77
2022/04/16 10:18:32;;;;;;;1.00;1.00;;;15.00;44.10;14.90;99456.00;;;;5114002;28;20622;-78
2022/04/16 10:21:01;;;;;;;1.70;1.60;;;15.30;43.60;14.90;99461.00;;;;5114221;28;20220;-74
2022/04/16 10:23:30;;;;;;;1.37;1.27;;;15.20;42.40;15.00;99465.00;;;;5113757;28;20218;-75
2022/04/16 10:26:09;;;;;;;1.33;1.27;;;15.40;41.30;14.80;99443.00;;;;5113767;28;20198;-76
2022/04/16 10:28:41;;;;;;;1.13;1.13;;;15.30;41.50;14.80;99470.00;;;;5095820;28;20675;-77
2022/04/16 10:31:30;;;;;;;1.80;1.37;;;15.20;41.30;14.70;99473.00;;;;5113721;28;20256;-77
2022/04/16 10:33:59;;;;;;;0.90;0.90;;;15.20;41.70;14.50;99456.00;;;;5113754;28;20280;-76
2022/04/16 10:36:27;;;;;;;0.67;0.67;;;15.00;40.80;14.80;99462.00;;;;5115125;28;20757;-76
2022/04/16 10:38:55;;;;;;;1.70;1.60;;;15.20;41.20;14.70;99468.00;;;;5117292;28;20222;-77
2022/04/16 10:41:22;;;;;;;0.97;0.97;;;15.20;39.80;14.80;99469.00;;;;5099876;28;20190;-76
2022/04/16 10:43:55;;;;;;;1.10;1.10;;;15.20;39.90;14.90;99468.00;;;;5117329;28;20241;-75
2022/04/16 10:46:25;;;;;;;1.00;1.00;;;15.30;40.10;14.80;99459.00;;;;5117253;28;20221;-78
2022/04/16 10:48:55;;;;;;;0.67;0.67;;;15.30;41.00;14.50;99468.00;;;;5117374;28;20218;-77
2022/04/16 10:51:22;;;;;;;0.97;0.97;;;15.10;39.00;14.40;99465.00;;;;5117192;28;20239;-74
2022/04/16 10:53:49;;;;;;;1.53;1.23;;;14.90;41.10;14.70;99466.00;;;;5116819;28;20225;-76
2022/04/16 10:56:20;;;;;;;0.53;0.53;;;15.10;40.20;14.70;99465.00;;;;5116772;28;20194;-76
2022/04/16 10:59:01;;;;;;;0.80;0.80;;;15.10;38.70;14.60;99468.00;;;;5116552;28;20221;-76
2022/04/16 11:01:30;;;;;;;0.60;0.60;;;15.10;39.70;14.60;99478.00;;;;5116951;28;20219;-75
2022/04/16 11:03:57;;;;;;;0.83;0.83;;;15.10;38.60;14.50;99468.00;;;;5116743;28;20222;-75
2022/04/16 11:06:34;;;;;;;0.90;0.90;;;15.00;38.10;14.60;99471.00;;;;5116714;28;20281;-72
2022/04/16 11:09:01;;;;;;;3.37;0.80;;;15.00;39.20;14.10;99468.00;;;;5116564;28;20304;-72
2022/04/16 11:11:28;;;;;;;6.17;1.27;;;14.70;40.60;13.90;99470.00;;;;5116560;28;20240;-77
2022/04/16 11:13:59;;;;;;;0.70;0.70;;;14.60;41.10;13.90;99465.00;;;;5116486;28;20250;-75
2022/04/16 11:16:26;;;;;;;1.03;1.03;;;14.40;41.40;14.30;99455.00;;;;5098690;28;20362;-76
2022/04/16 11:18:52;;;;;;;0.60;0.60;;;14.60;41.10;14.20;99447.00;;;;5116589;28;20281;-80
2022/04/16 11:21:26;;;;;;;0.50;0.50;;;14.70;39.90;14.10;99446.00;;;;5118817;28;20206;-78